Accueil
METAR-TAF:

METAR-TAF

Aéroports :

Bujumbura, Burundi

Aéroport international de Bujumbura

latitude: 03-19S, longitude: 029-19E, altitude: 782 m

METAR: absent

Heure: 05:05 (03:05 UTC)

Prévision

Le bulletin a été fait il y a 6 heures et 5 minutes, à 21:00 UTC
Prévision valable du 24 à 00 UTC au 25 à 06 UTC
Vent 3 kt de nord avec des rafales jusqu'à 20 kt
Visibilité: 9000 m
Quelques nuages à une hauteur de 2500 ft
Nuages épars à une hauteur de 10000 ft
Quelques nuages à une hauteur de 3000 ft
Nuages épars à une hauteur de 10000 ft
Quelques nuages à une hauteur de 2500 ft
Nuages épars à une hauteur de 10000 ft

TAF: HBBA 232100Z 2400/2506 000000KT CAVOK BEMG 2402/2404 36002KT 8000 FEW025 SCT100 BEMG2407/2409 18010G20KT 9999 FEW030 SCT100 BEMG2420/2422 00000KT CAVOK BEMG2502/2504 36003KT 9000 FEW025 SCT100

Observations et prévisions météorologiques de plus de 4000 aéroports (messages METAR et TAF).

Les stations disponibles sont représentées par des disques jaunes et rouges sur la carte.

Passer la souris dessus pour voir le nom de la station.

Cliquer dessus pour voir les observations et prévisions météorologiques.

Pour changer de carte: cliquez sur les boutons verts avec une croix noire pour zoomer, sur le bouton vert avec un tiret pour effectuer un zoom arrière, ou sur les flèches vertes pour les cartes adjacentes.


METAR-TAF: